Weather observations for the past three days for
Santa Barbara, Santa Barbara Municipal Airport
Imperial (Metric)
Date Time (pdt) Wind (mph) Vis. (mi.) Weather Sky Cond. Temperature (ºF) Relative Humidity Wind Chill (°F) Heat Index (°F) Pressure Precipitation (in)
Air Dwpt 6 hour altimeter (in) sea level (mb) 1 hr 3 hr 6 hr
Max. Min.
09 16:53 W 6 10.00 Fair CLR 64 55 64.9 59 73% 29.88 1011.8
09 15:53 SW 8 9.00 A Few Clouds with Haze FEW010 62.1 55 78% 29.9 1012.3
09 14:53 SW 8 6.00 Partly Cloudy with Haze SCT007 63 55.9 78% 29.91 1012.9
09 13:53 SE 6 6.00 Partly Cloudy with Haze SCT007 61 55 81% 29.93 1013.6
09 12:53 SE 9 6.00 Partly Cloudy with Haze SCT005 60.1 55 84% 29.94 1013.8
09 11:53 SE 9 8.00 Overcast OVC008 60.1 55 84% 29.96 1014.4
09 10:53 SE 9 6.00 Fog/Mist OVC005 59 55 59 55 87% 29.96 1014.5
09 09:53 SE 8 2.00 Fog/Mist OVC003 57 55 93% 29.95 1014.3
09 08:53 SE 7 2.00 Fog/Mist OVC004 57 55 93% 29.95 1014.2
09 07:53 E 3 2.00 Fog/Mist OVC003 55.9 55 97% 29.95 1014.1
09 06:53 N 3 2.00 Fog/Mist OVC003 55 54 96% 29.94 1013.7
09 05:53 Calm 0.50 Fog VV002 55 55 100% 29.92 1013.2
09 04:53 Calm 0.50 Fog VV002 55 55 57 52 100% 29.92 1013.1
09 03:53 Calm 1.25 Fog/Mist OVC003 55 54 96% 29.93 1013.4
09 02:53 Calm 8.00 Overcast OVC005 53.1 51.1 93% 29.93 1013.4
09 01:53 Calm 7.00 Mostly Cloudy BKN006 54 52 93% 29.93 1013.5
09 00:53 N 5 5.00 Fog/Mist SCT006 55 53.1 93% 29.94 1013.6
08 23:53 SE 5 4.00 Fog/Mist OVC004 57 55 93% 29.94 1013.8
08 22:53 Calm 7.00 Fair CLR 57 55 64.9 57 93% 29.95 1014.0
08 21:53 E 3 7.00 Fair CLR 57 55 93% 29.94 1013.8
08 20:53 SE 5 8.00 Fair CLR 57.9 55 90% 29.92 1013.2
08 19:53 SE 5 7.00 Fair CLR 57.9 55 90% 29.91 1012.9
08 18:53 SE 5 9.00 Fair CLR 61 55 81% 29.9 1012.6
08 17:53 SE 6 9.00 Fair CLR 63 55 76% 29.91 1012.9
08 16:53 S 7 9.00 Fair CLR 64 55.9 64.9 60.1 75% 29.92 1013.2
08 15:53 SW 8 10.00 A Few Clouds FEW013 64.9 55.9 73% 29.95 1014.0
08 14:53 SW 8 10.00 Mostly Cloudy FEW007 BKN017 64.9 55 70% 29.97 1014.9
08 13:53 SW 8 10.00 Overcast SCT007 OVC013 64 55.9 75% 29.99 1015.6
08 12:53 W 5 8.00 Overcast OVC008 63 57 81% 30.01 1016.2
08 11:53 SW 5 7.00 Overcast OVC008 61 55.9 84% 30.02 1016.4
08 10:53 S 5 7.00 Overcast OVC005 60.1 55.9 61 57 86% 30.03 1016.8
08 09:53 Vrbl 3 9.00 Overcast OVC007 60.1 55 84% 30.02 1016.6
08 08:53 Calm 8.00 Overcast OVC009 60.1 55 84% 30.02 1016.5
08 07:53 Calm 7.00 Overcast OVC007 59 55 87% 30.02 1016.7
08 06:53 Calm 7.00 Overcast OVC008 57.9 55 90% 30.02 1016.4
08 05:53 Calm 7.00 Overcast OVC007 57.9 55 90% 30 1015.9
08 04:53 E 7 6.00 Fog/Mist OVC007 57.9 55.9 59 55.9 93% 30 1015.7
08 03:53 E 8 7.00 Fair CLR 57 55 93% 29.98 1015.2
08 02:53 Calm 8.00 Fair CLR 55.9 54 93% 29.97 1014.9
08 01:53 NE 5 7.00 Fair CLR 57 54 90% 29.97 1014.9
08 00:53 E 5 8.00 Fair CLR 57.9 55 90% 29.97 1014.9
07 23:53 NE 7 8.00 Fair CLR 59 55 87% 29.97 1014.8
07 22:53 E 7 8.00 Fair CLR 59 55.9 64 57.9 90% 29.96 1014.4
07 21:53 SE 7 7.00 Fair CLR 59 55.9 90% 29.95 1014.1
07 20:53 SE 6 8.00 Fair CLR 59 55.9 90% 29.93 1013.5
07 19:53 SE 7 7.00 Fair CLR 59 55.9 90% 29.92 1013.2
07 18:53 SE 7 7.00 Fair CLR 60.1 55.9 86% 29.91 1012.9
07 17:53 SE 7 8.00 Fair CLR 62.1 55 78% 29.92 1013.3
07 16:53 SE 8 10.00 Fair CLR 64 55 70 63 73% 29.93 1013.6
07 15:53 SW 8 10.00 Fair CLR 70 55 59% 29.95 1014.0
07 14:53 SW 9 10.00 A Few Clouds FEW050 68 54 61% 29.97 1014.9
07 13:53 W 8 10.00 Fair CLR 66.9 54 63% 29.99 1015.6
07 12:53 SW 7 10.00 Fair CLR 69.1 55 61% 30 1015.8
07 11:53 SW 7 10.00 Fair CLR 66.9 55 66% 30.01 1016.2
07 10:53 Vrbl 6 10.00 Fair CLR 64.9 55 66 51.1 70% 30.01 1016.3
07 09:53 S 5 10.00 Fair CLR 64 54 70% 30.01 1016.2
07 08:53 S 3 10.00 Fair CLR 63 54 73% 30.02 1016.5
07 07:53 Calm 10.00 Fair CLR 60.1 54 80% 30.02 1016.5
07 06:53 Calm 10.00 Fair CLR 53.1 51.1 93% 30.01 1016.1
07 05:53 N 3 10.00 Fair CLR 53.1 51.1 93% 30 1015.7
07 04:53 Calm 10.00 Fair CLR 53.1 51.1 59 53.1 93% 30 1015.7
07 03:53 Calm 10.00 Fair CLR 55 53.1 93% 30 1015.8
07 02:53 N 5 10.00 Fair CLR 55 52 90% 30.01 1016.1
07 01:53 NE 3 10.00 Fair CLR 55 52 90% 30.01 1016.3
07 00:53 E 3 10.00 Fair CLR 57.9 54 87% 30.02 1016.5
06 23:53 NE 3 10.00 Fair CLR 59 54 83% 30.02 1016.4
06 22:53 E 5 10.00 Fair CLR 57.9 54 69.1 57 87% 30.02 1016.3
06 21:53 SE 5 10.00 Fair CLR 57.9 54 87% 30.01 1016.1
06 20:53 S 3 10.00 Fair CLR 57.9 53.1 84% 30 1015.7
06 19:53 Calm 10.00 Fair CLR 63 54 73% 29.98 1015.1
06 18:53 Calm 10.00 Fair CLR 66 54 65% 29.98 1015.2
06 17:53 SW 5 10.00 Fair CLR 66.9 51.1 57% 29.99 1015.4
Date Time (pdt) Wind (mph) Vis. (mi.) Weather Sky Cond. Air Dwpt Max. Min. Relative Humidity Wind Chill (°F) Heat Index (°F) altimeter (in) sea level (mb) 1 hr 3 hr 6 hr
6 hour
Temperature (ºF) Pressure Precipitation (in)